sensor_id;sensor_type;location;lat;lon;timestamp;pressure;altitude;pressure_sealevel;temperature;humidity
75051;BME280;63628;47.656;11.310;2024-02-23T00:01:07;93134.34;;;8.54;77.13
75051;BME280;63628;47.656;11.310;2024-02-23T00:03:35;93131.50;;;8.92;76.83
75051;BME280;63628;47.656;11.310;2024-02-23T00:06:03;93125.94;;;8.93;77.87
75051;BME280;63628;47.656;11.310;2024-02-23T00:08:30;93115.03;;;8.34;76.69
75051;BME280;63628;47.656;11.310;2024-02-23T00:10:57;93099.81;;;9.42;77.45
75051;BME280;63628;47.656;11.310;2024-02-23T00:13:25;93100.59;;;9.48;77.91
75051;BME280;63628;47.656;11.310;2024-02-23T00:15:52;93090.34;;;8.96;71.71
75051;BME280;63628;47.656;11.310;2024-02-23T00:18:19;93074.47;;;7.72;71.38
75051;BME280;63628;47.656;11.310;2024-02-23T00:20:46;93071.31;;;9.29;77.99
75051;BME280;63628;47.656;11.310;2024-02-23T00:23:13;93075.56;;;9.05;75.29
75051;BME280;63628;47.656;11.310;2024-02-23T00:25:40;93079.25;;;9.09;76.55
75051;BME280;63628;47.656;11.310;2024-02-23T00:28:07;93068.97;;;8.87;76.54
75051;BME280;63628;47.656;11.310;2024-02-23T00:30:35;93086.38;;;8.98;76.87
75051;BME280;63628;47.656;11.310;2024-02-23T00:33:03;93082.13;;;9.38;77.62
75051;BME280;63628;47.656;11.310;2024-02-23T00:35:30;93072.59;;;8.40;69.80
75051;BME280;63628;47.656;11.310;2024-02-23T00:37:57;93077.13;;;9.01;75.71
75051;BME280;63628;47.656;11.310;2024-02-23T00:40:23;93080.84;;;9.15;77.51
75051;BME280;63628;47.656;11.310;2024-02-23T00:42:50;93080.28;;;9.38;77.08
75051;BME280;63628;47.656;11.310;2024-02-23T00:45:17;93077.41;;;9.30;77.80
75051;BME280;63628;47.656;11.310;2024-02-23T00:47:45;93086.66;;;8.76;73.04
75051;BME280;63628;47.656;11.310;2024-02-23T00:50:14;93081.09;;;8.52;68.00
75051;BME280;63628;47.656;11.310;2024-02-23T00:52:41;93089.19;;;8.36;67.98
75051;BME280;63628;47.656;11.310;2024-02-23T00:55:08;93090.00;;;8.36;67.52
75051;BME280;63628;47.656;11.310;2024-02-23T00:57:35;93089.81;;;8.68;76.48
75051;BME280;63628;47.656;11.310;2024-02-23T01:00:02;93093.22;;;8.64;69.89
75051;BME280;63628;47.656;11.310;2024-02-23T01:02:31;93090.34;;;9.21;77.75
75051;BME280;63628;47.656;11.310;2024-02-23T01:05:01;93076.34;;;9.05;75.82
75051;BME280;63628;47.656;11.310;2024-02-23T01:07:29;93086.38;;;9.29;76.08
75051;BME280;63628;47.656;11.310;2024-02-23T01:09:58;93086.94;;;7.92;66.24
75051;BME280;63628;47.656;11.310;2024-02-23T01:12:26;93079.50;;;8.46;68.00
75051;BME280;63628;47.656;11.310;2024-02-23T01:14:53;93085.78;;;7.68;68.70
75051;BME280;63628;47.656;11.310;2024-02-23T01:17:19;93086.47;;;8.05;65.60
75051;BME280;63628;47.656;11.310;2024-02-23T01:19:46;93080.81;;;9.10;76.86
75051;BME280;63628;47.656;11.310;2024-02-23T01:22:14;93072.41;;;9.18;76.30
75051;BME280;63628;47.656;11.310;2024-02-23T01:24:41;93065.28;;;9.18;77.37
75051;BME280;63628;47.656;11.310;2024-02-23T01:27:08;93074.50;;;9.16;76.95
75051;BME280;63628;47.656;11.310;2024-02-23T01:29:35;93072.41;;;8.57;68.49
75051;BME280;63628;47.656;11.310;2024-02-23T01:32:01;93066.25;;;8.31;69.55
75051;BME280;63628;47.656;11.310;2024-02-23T01:34:28;93078.72;;;8.71;77.26
75051;BME280;63628;47.656;11.310;2024-02-23T01:36:55;93076.63;;;8.88;76.91
75051;BME280;63628;47.656;11.310;2024-02-23T01:39:23;93074.06;;;7.95;66.66
75051;BME280;63628;47.656;11.310;2024-02-23T01:41:50;93072.53;;;8.15;67.81
75051;BME280;63628;47.656;11.310;2024-02-23T01:44:17;93072.66;;;8.61;71.18
75051;BME280;63628;47.656;11.310;2024-02-23T01:46:44;93069.22;;;8.50;75.28
75051;BME280;63628;47.656;11.310;2024-02-23T01:49:11;93073.97;;;8.58;73.43
75051;BME280;63628;47.656;11.310;2024-02-23T01:51:38;93079.16;;;7.60;66.00
75051;BME280;63628;47.656;11.310;2024-02-23T01:54:06;93084.44;;;7.65;71.28
75051;BME280;63628;47.656;11.310;2024-02-23T01:56:35;93091.38;;;8.69;76.15
75051;BME280;63628;47.656;11.310;2024-02-23T01:59:03;93088.03;;;7.96;65.13
75051;BME280;63628;47.656;11.310;2024-02-23T02:01:30;93087.28;;;8.11;68.52
75051;BME280;63628;47.656;11.310;2024-02-23T02:03:58;93092.91;;;6.88;71.53
75051;BME280;63628;47.656;11.310;2024-02-23T02:06:24;93096.53;;;8.23;76.52
75051;BME280;63628;47.656;11.310;2024-02-23T02:08:52;93102.72;;;8.85;76.54
75051;BME280;63628;47.656;11.310;2024-02-23T02:11:19;93094.28;;;8.88;74.82
75051;BME280;63628;47.656;11.310;2024-02-23T02:13:47;93092.97;;;8.96;77.03
75051;BME280;63628;47.656;11.310;2024-02-23T02:16:14;93098.50;;;8.84;75.13
75051;BME280;63628;47.656;11.310;2024-02-23T02:18:40;93099.56;;;8.78;75.32
75051;BME280;63628;47.656;11.310;2024-02-23T02:21:07;93099.81;;;8.66;75.89
75051;BME280;63628;47.656;11.310;2024-02-23T02:23:34;93099.31;;;8.95;76.09
75051;BME280;63628;47.656;11.310;2024-02-23T02:26:01;93101.03;;;7.66;71.45
75051;BME280;63628;47.656;11.310;2024-02-23T02:28:28;93104.84;;;8.78;77.02
75051;BME280;63628;47.656;11.310;2024-02-23T02:30:57;93103.53;;;8.75;75.34
75051;BME280;63628;47.656;11.310;2024-02-23T02:33:23;93109.41;;;8.15;71.42
75051;BME280;63628;47.656;11.310;2024-02-23T02:35:50;93111.97;;;8.72;77.30
75051;BME280;63628;47.656;11.310;2024-02-23T02:38:17;93101.94;;;8.95;77.00
75051;BME280;63628;47.656;11.310;2024-02-23T02:40:44;93101.44;;;7.94;69.63
75051;BME280;63628;47.656;11.310;2024-02-23T02:43:11;93110.03;;;7.27;71.42
75051;BME280;63628;47.656;11.310;2024-02-23T02:45:37;93118.53;;;6.71;73.34
75051;BME280;63628;47.656;11.310;2024-02-23T02:48:07;93107.50;;;7.90;77.97
75051;BME280;63628;47.656;11.310;2024-02-23T02:50:34;93093.16;;;8.38;73.52
75051;BME280;63628;47.656;11.310;2024-02-23T02:53:01;93103.00;;;8.83;76.52
75051;BME280;63628;47.656;11.310;2024-02-23T02:55:27;93104.84;;;8.88;75.54
75051;BME280;63628;47.656;11.310;2024-02-23T02:57:54;93109.84;;;8.95;75.59
75051;BME280;63628;47.656;11.310;2024-02-23T03:00:21;93110.66;;;8.95;76.68
75051;BME280;63628;47.656;11.310;2024-02-23T03:02:47;93107.22;;;8.95;76.33
75051;BME280;63628;47.656;11.310;2024-02-23T03:05:15;93119.50;;;7.28;72.67
75051;BME280;63628;47.656;11.310;2024-02-23T03:07:42;93137.00;;;8.65;78.01
75051;BME280;63628;47.656;11.310;2024-02-23T03:10:09;93132.19;;;6.67;75.54
75051;BME280;63628;47.656;11.310;2024-02-23T03:12:35;93139.97;;;8.16;79.21
75051;BME280;63628;47.656;11.310;2024-02-23T03:15:03;93132.50;;;6.22;76.84
75051;BME280;63628;47.656;11.310;2024-02-23T03:17:29;93128.97;;;6.39;74.45
75051;BME280;63628;47.656;11.310;2024-02-23T03:19:56;93130.50;;;8.20;71.86
75051;BME280;63628;47.656;11.310;2024-02-23T03:22:25;93123.09;;;7.54;71.91
75051;BME280;63628;47.656;11.310;2024-02-23T03:24:52;93118.94;;;7.21;65.76
75051;BME280;63628;47.656;11.310;2024-02-23T03:27:19;93121.97;;;7.87;74.60
75051;BME280;63628;47.656;11.310;2024-02-23T03:29:47;93131.13;;;8.42;75.05
75051;BME280;63628;47.656;11.310;2024-02-23T03:32:14;93126.84;;;8.31;76.35
75051;BME280;63628;47.656;11.310;2024-02-23T03:34:41;93127.47;;;7.39;61.46
75051;BME280;63628;47.656;11.310;2024-02-23T03:37:07;93129.81;;;7.35;60.28
75051;BME280;63628;47.656;11.310;2024-02-23T03:39:35;93129.06;;;7.40;71.02
75051;BME280;63628;47.656;11.310;2024-02-23T03:42:03;93127.69;;;7.79;64.13
75051;BME280;63628;47.656;11.310;2024-02-23T03:44:30;93124.63;;;6.76;62.70
75051;BME280;63628;47.656;11.310;2024-02-23T03:46:58;93127.78;;;7.47;72.24
75051;BME280;63628;47.656;11.310;2024-02-23T03:49:25;93124.09;;;7.95;71.10
75051;BME280;63628;47.656;11.310;2024-02-23T03:51:51;93126.06;;;8.31;75.10
75051;BME280;63628;47.656;11.310;2024-02-23T03:54:18;93128.41;;;8.27;68.18
75051;BME280;63628;47.656;11.310;2024-02-23T03:56:46;93129.63;;;7.10;64.10
75051;BME280;63628;47.656;11.310;2024-02-23T03:59:13;93129.84;;;6.71;64.67
75051;BME280;63628;47.656;11.310;2024-02-23T04:01:40;93124.25;;;7.74;70.12
75051;BME280;63628;47.656;11.310;2024-02-23T04:04:07;93127.91;;;7.25;71.48
75051;BME280;63628;47.656;11.310;2024-02-23T04:06:34;93134.69;;;7.58;70.42
75051;BME280;63628;47.656;11.310;2024-02-23T04:09:01;93135.97;;;7.14;64.30
75051;BME280;63628;47.656;11.310;2024-02-23T04:11:31;93138.69;;;6.92;65.61
75051;BME280;63628;47.656;11.310;2024-02-23T04:13:59;93137.31;;;6.30;67.84
75051;BME280;63628;47.656;11.310;2024-02-23T04:16:27;93131.66;;;7.03;75.34
75051;BME280;63628;47.656;11.310;2024-02-23T04:18:54;93125.91;;;7.85;75.20
75051;BME280;63628;47.656;11.310;2024-02-23T04:21:21;93140.78;;;8.16;73.85
75051;BME280;63628;47.656;11.310;2024-02-23T04:23:48;93133.03;;;7.89;68.37
75051;BME280;63628;47.656;11.310;2024-02-23T04:26:14;93135.66;;;7.89;65.98
75051;BME280;63628;47.656;11.310;2024-02-23T04:28:41;93130.94;;;7.91;69.79
75051;BME280;63628;47.656;11.310;2024-02-23T04:31:09;93136.81;;;7.61;69.54
75051;BME280;63628;47.656;11.310;2024-02-23T04:33:36;93138.84;;;7.49;75.49
75051;BME280;63628;47.656;11.310;2024-02-23T04:36:04;93151.84;;;7.66;66.74
75051;BME280;63628;47.656;11.310;2024-02-23T04:38:31;93145.75;;;7.60;66.15
75051;BME280;63628;47.656;11.310;2024-02-23T04:40:58;93144.25;;;7.75;76.59
75051;BME280;63628;47.656;11.310;2024-02-23T04:43:28;93152.31;;;7.58;68.00
75051;BME280;63628;47.656;11.310;2024-02-23T04:45:55;93148.19;;;8.24;77.62
75051;BME280;63628;47.656;11.310;2024-02-23T04:48:23;93142.31;;;8.07;74.70
75051;BME280;63628;47.656;11.310;2024-02-23T04:50:49;93151.00;;;8.03;73.33
75051;BME280;63628;47.656;11.310;2024-02-23T04:53:16;93151.31;;;7.64;73.88
75051;BME280;63628;47.656;11.310;2024-02-23T04:55:43;93151.28;;;8.11;75.02
75051;BME280;63628;47.656;11.310;2024-02-23T04:58:09;93162.63;;;7.64;75.75
75051;BME280;63628;47.656;11.310;2024-02-23T05:00:38;93171.00;;;7.56;75.93
75051;BME280;63628;47.656;11.310;2024-02-23T05:03:05;93182.59;;;7.18;74.63
75051;BME280;63628;47.656;11.310;2024-02-23T05:05:36;93184.38;;;7.87;77.63
75051;BME280;63628;47.656;11.310;2024-02-23T05:08:03;93190.19;;;6.88;77.43
75051;BME280;63628;47.656;11.310;2024-02-23T05:10:30;93188.72;;;6.70;75.95
75051;BME280;63628;47.656;11.310;2024-02-23T05:12:57;93166.81;;;5.55;76.05
75051;BME280;63628;47.656;11.310;2024-02-23T05:15:23;93162.56;;;5.32;76.22
75051;BME280;63628;47.656;11.310;2024-02-23T05:17:50;93169.28;;;5.12;77.43
75051;BME280;63628;47.656;11.310;2024-02-23T05:20:17;93165.00;;;5.05;77.92
75051;BME280;63628;47.656;11.310;2024-02-23T05:22:45;93171.91;;;7.03;80.58
75051;BME280;63628;47.656;11.310;2024-02-23T05:25:11;93179.97;;;7.60;73.10
75051;BME280;63628;47.656;11.310;2024-02-23T05:27:38;93181.63;;;7.72;75.09
75051;BME280;63628;47.656;11.310;2024-02-23T05:30:06;93173.16;;;6.95;78.26
75051;BME280;63628;47.656;11.310;2024-02-23T05:32:33;93182.78;;;7.86;77.94
75051;BME280;63628;47.656;11.310;2024-02-23T05:35:00;93174.94;;;6.36;75.81
75051;BME280;63628;47.656;11.310;2024-02-23T05:37:27;93185.31;;;7.34;77.50
75051;BME280;63628;47.656;11.310;2024-02-23T05:39:55;93182.00;;;6.84;72.75
75051;BME280;63628;47.656;11.310;2024-02-23T05:42:22;93196.00;;;6.90;69.90
75051;BME280;63628;47.656;11.310;2024-02-23T05:44:48;93193.97;;;7.29;76.92
75051;BME280;63628;47.656;11.310;2024-02-23T05:47:15;93196.31;;;8.05;77.67
75051;BME280;63628;47.656;11.310;2024-02-23T05:49:42;93199.78;;;7.68;71.99
75051;BME280;63628;47.656;11.310;2024-02-23T05:52:09;93197.16;;;7.31;69.76
75051;BME280;63628;47.656;11.310;2024-02-23T05:54:36;93202.91;;;8.07;77.88
75051;BME280;63628;47.656;11.310;2024-02-23T05:57:04;93202.19;;;7.75;72.51
75051;BME280;63628;47.656;11.310;2024-02-23T05:59:31;93197.31;;;7.19;76.85
75051;BME280;63628;47.656;11.310;2024-02-23T06:01:58;93196.28;;;7.57;73.24
75051;BME280;63628;47.656;11.310;2024-02-23T06:04:25;93204.13;;;7.89;76.83
75051;BME280;63628;47.656;11.310;2024-02-23T06:06:51;93200.28;;;8.07;76.41
75051;BME280;63628;47.656;11.310;2024-02-23T06:09:18;93207.41;;;8.12;76.20
75051;BME280;63628;47.656;11.310;2024-02-23T06:11:46;93199.00;;;8.15;76.79
75051;BME280;63628;47.656;11.310;2024-02-23T06:14:14;93198.63;;;7.54;68.66
75051;BME280;63628;47.656;11.310;2024-02-23T06:16:41;93213.16;;;6.49;79.72
75051;BME280;63628;47.656;11.310;2024-02-23T06:19:08;93205.19;;;7.88;77.71
75051;BME280;63628;47.656;11.310;2024-02-23T06:21:35;93203.97;;;8.06;76.86
75051;BME280;63628;47.656;11.310;2024-02-23T06:24:03;93212.69;;;8.12;77.26
75051;BME280;63628;47.656;11.310;2024-02-23T06:26:31;93212.19;;;7.36;69.47
75051;BME280;63628;47.656;11.310;2024-02-23T06:28:58;93206.81;;;7.20;76.45
75051;BME280;63628;47.656;11.310;2024-02-23T06:31:26;93208.00;;;7.40;73.03
75051;BME280;63628;47.656;11.310;2024-02-23T06:33:53;93206.56;;;8.01;77.13
75051;BME280;63628;47.656;11.310;2024-02-23T06:36:20;93203.69;;;8.08;76.89
75051;BME280;63628;47.656;11.310;2024-02-23T06:38:46;93209.00;;;8.13;76.81
75051;BME280;63628;47.656;11.310;2024-02-23T06:41:14;93217.44;;;8.15;77.24
75051;BME280;63628;47.656;11.310;2024-02-23T06:43:41;93222.16;;;8.13;77.80
75051;BME280;63628;47.656;11.310;2024-02-23T06:46:08;93222.97;;;8.13;77.03
75051;BME280;63628;47.656;11.310;2024-02-23T06:48:36;93221.38;;;8.12;77.15
75051;BME280;63628;47.656;11.310;2024-02-23T06:51:04;93224.78;;;8.08;77.50
75051;BME280;63628;47.656;11.310;2024-02-23T06:53:31;93231.91;;;7.06;68.38
75051;BME280;63628;47.656;11.310;2024-02-23T06:55:58;93229.41;;;7.85;77.79
75051;BME280;63628;47.656;11.310;2024-02-23T06:58:26;93226.63;;;8.07;77.13
75051;BME280;63628;47.656;11.310;2024-02-23T07:00:52;93241.91;;;8.10;77.06
75051;BME280;63628;47.656;11.310;2024-02-23T07:03:19;93245.09;;;8.12;76.66
75051;BME280;63628;47.656;11.310;2024-02-23T07:05:47;93242.75;;;8.16;76.10
75051;BME280;63628;47.656;11.310;2024-02-23T07:08:16;93254.06;;;8.16;76.31
75051;BME280;63628;47.656;11.310;2024-02-23T07:10:43;93248.75;;;8.06;75.43
75051;BME280;63628;47.656;11.310;2024-02-23T07:13:10;93247.72;;;8.12;76.41
75051;BME280;63628;47.656;11.310;2024-02-23T07:15:36;93255.63;;;8.12;76.53
75051;BME280;63628;47.656;11.310;2024-02-23T07:18:04;93260.66;;;8.14;76.95
75051;BME280;63628;47.656;11.310;2024-02-23T07:20:31;93266.94;;;8.08;76.67
75051;BME280;63628;47.656;11.310;2024-02-23T07:22:59;93260.06;;;8.07;76.98
75051;BME280;63628;47.656;11.310;2024-02-23T07:25:26;93274.00;;;8.02;76.86
75051;BME280;63628;47.656;11.310;2024-02-23T07:27:52;93266.94;;;8.08;77.31
75051;BME280;63628;47.656;11.310;2024-02-23T07:30:19;93254.72;;;7.91;70.72
75051;BME280;63628;47.656;11.310;2024-02-23T07:32:46;93262.19;;;8.10;76.17
75051;BME280;63628;47.656;11.310;2024-02-23T07:35:18;93257.72;;;8.10;76.07
75051;BME280;63628;47.656;11.310;2024-02-23T07:37:45;93255.38;;;8.14;76.64
75051;BME280;63628;47.656;11.310;2024-02-23T07:40:14;93254.00;;;8.06;77.08
75051;BME280;63628;47.656;11.310;2024-02-23T07:42:45;93250.75;;;6.27;71.42
75051;BME280;63628;47.656;11.310;2024-02-23T07:45:12;93255.44;;;4.74;77.47
75051;BME280;63628;47.656;11.310;2024-02-23T07:47:39;93248.84;;;6.23;74.40
75051;BME280;63628;47.656;11.310;2024-02-23T07:50:06;93248.09;;;7.52;78.04
75051;BME280;63628;47.656;11.310;2024-02-23T07:52:33;93238.59;;;7.83;77.50
75051;BME280;63628;47.656;11.310;2024-02-23T07:55:00;93239.69;;;7.87;75.99
75051;BME280;63628;47.656;11.310;2024-02-23T07:57:30;93227.28;;;7.82;76.51
75051;BME280;63628;47.656;11.310;2024-02-23T07:59:58;93232.84;;;7.91;76.97
75051;BME280;63628;47.656;11.310;2024-02-23T08:02:24;93236.81;;;7.93;76.95
75051;BME280;63628;47.656;11.310;2024-02-23T08:04:51;93253.41;;;7.94;76.30
75051;BME280;63628;47.656;11.310;2024-02-23T08:07:19;93251.28;;;7.91;77.44
75051;BME280;63628;47.656;11.310;2024-02-23T08:09:46;93261.06;;;7.95;76.41
75051;BME280;63628;47.656;11.310;2024-02-23T08:12:12;93263.72;;;8.01;76.02
75051;BME280;63628;47.656;11.310;2024-02-23T08:14:41;93268.38;;;6.10;77.91
75051;BME280;63628;47.656;11.310;2024-02-23T08:17:10;93273.03;;;3.87;78.34
75051;BME280;63628;47.656;11.310;2024-02-23T08:19:37;93273.75;;;3.94;79.06
75051;BME280;63628;47.656;11.310;2024-02-23T08:22:04;93277.47;;;4.10;79.48
75051;BME280;63628;47.656;11.310;2024-02-23T08:24:30;93255.31;;;6.15;82.18
75051;BME280;63628;47.656;11.310;2024-02-23T08:26:58;93269.47;;;4.28;77.04
75051;BME280;63628;47.656;11.310;2024-02-23T08:29:25;93267.13;;;4.84;74.74
75051;BME280;63628;47.656;11.310;2024-02-23T08:31:53;93272.38;;;3.92;78.10
75051;BME280;63628;47.656;11.310;2024-02-23T08:34:20;93264.84;;;3.72;78.52
75051;BME280;63628;47.656;11.310;2024-02-23T08:36:47;93267.78;;;4.10;84.21
75051;BME280;63628;47.656;11.310;2024-02-23T08:39:13;93272.44;;;6.83;80.33
75051;BME280;63628;47.656;11.310;2024-02-23T08:41:40;93281.44;;;6.65;76.19
75051;BME280;63628;47.656;11.310;2024-02-23T08:44:07;93281.47;;;6.92;78.59
75051;BME280;63628;47.656;11.310;2024-02-23T08:46:34;93275.34;;;7.36;77.75
75051;BME280;63628;47.656;11.310;2024-02-23T08:49:02;93275.63;;;6.63;77.39
75051;BME280;63628;47.656;11.310;2024-02-23T08:51:29;93277.41;;;7.34;78.59
75051;BME280;63628;47.656;11.310;2024-02-23T08:53:55;93284.34;;;7.45;77.88
75051;BME280;63628;47.656;11.310;2024-02-23T08:56:26;93283.84;;;7.48;77.76
75051;BME280;63628;47.656;11.310;2024-02-23T08:58:53;93304.41;;;7.51;77.83
75051;BME280;63628;47.656;11.310;2024-02-23T09:01:20;93302.56;;;7.51;77.97
75051;BME280;63628;47.656;11.310;2024-02-23T09:03:46;93314.09;;;7.45;77.07
75051;BME280;63628;47.656;11.310;2024-02-23T09:06:14;93308.88;;;7.50;77.31
75051;BME280;63628;47.656;11.310;2024-02-23T09:08:41;93311.19;;;6.49;78.73
75051;BME280;63628;47.656;11.310;2024-02-23T09:11:08;93316.69;;;4.85;73.80
75051;BME280;63628;47.656;11.310;2024-02-23T09:13:35;93316.41;;;7.15;78.85
75051;BME280;63628;47.656;11.310;2024-02-23T09:16:01;93326.97;;;7.42;78.22
75051;BME280;63628;47.656;11.310;2024-02-23T09:18:29;93331.88;;;4.71;73.41
75051;BME280;63628;47.656;11.310;2024-02-23T09:20:56;93340.41;;;7.18;78.41
75051;BME280;63628;47.656;11.310;2024-02-23T09:23:24;93338.63;;;7.02;73.59
75051;BME280;63628;47.656;11.310;2024-02-23T09:25:51;93344.03;;;7.39;77.65
75051;BME280;63628;47.656;11.310;2024-02-23T09:28:18;93349.91;;;7.46;77.17
75051;BME280;63628;47.656;11.310;2024-02-23T09:30:45;93353.88;;;7.22;77.12
75051;BME280;63628;47.656;11.310;2024-02-23T09:33:11;93354.81;;;7.38;77.40
75051;BME280;63628;47.656;11.310;2024-02-23T09:35:38;93343.84;;;7.46;77.02
75051;BME280;63628;47.656;11.310;2024-02-23T09:38:05;93338.59;;;7.46;76.95
75051;BME280;63628;47.656;11.310;2024-02-23T09:40:33;93333.22;;;5.76;76.58
75051;BME280;63628;47.656;11.310;2024-02-23T09:43:00;93344.47;;;5.26;71.76
75051;BME280;63628;47.656;11.310;2024-02-23T09:45:27;93353.88;;;4.70;79.92
75051;BME280;63628;47.656;11.310;2024-02-23T09:47:56;93349.06;;;4.79;75.52
75051;BME280;63628;47.656;11.310;2024-02-23T09:50:23;93361.06;;;4.52;79.44
75051;BME280;63628;47.656;11.310;2024-02-23T09:52:51;93362.03;;;5.14;77.67
75051;BME280;63628;47.656;11.310;2024-02-23T09:55:18;93351.22;;;5.10;73.27
75051;BME280;63628;47.656;11.310;2024-02-23T09:57:51;93350.25;;;6.24;78.86
75051;BME280;63628;47.656;11.310;2024-02-23T10:00:21;93344.09;;;6.95;78.45
75051;BME280;63628;47.656;11.310;2024-02-23T10:02:50;93358.66;;;6.81;78.93
75051;BME280;63628;47.656;11.310;2024-02-23T10:05:17;93350.41;;;7.16;78.31
75051;BME280;63628;47.656;11.310;2024-02-23T10:07:44;93345.19;;;6.78;77.96
75051;BME280;63628;47.656;11.310;2024-02-23T10:10:12;93338.34;;;6.55;79.64
75051;BME280;63628;47.656;11.310;2024-02-23T10:12:39;93354.31;;;3.09;78.60
75051;BME280;63628;47.656;11.310;2024-02-23T10:15:08;93358.69;;;5.30;80.19
75051;BME280;63628;47.656;11.310;2024-02-23T10:17:35;93355.16;;;4.44;73.93
75051;BME280;63628;47.656;11.310;2024-02-23T10:20:03;93351.13;;;5.05;83.12
75051;BME280;63628;47.656;11.310;2024-02-23T10:22:32;93355.63;;;5.84;80.81
75051;BME280;63628;47.656;11.310;2024-02-23T10:24:59;93363.78;;;6.32;80.27
75051;BME280;63628;47.656;11.310;2024-02-23T10:27:26;93362.00;;;5.71;82.23
75051;BME280;63628;47.656;11.310;2024-02-23T10:29:53;93361.75;;;4.99;75.39
75051;BME280;63628;47.656;11.310;2024-02-23T10:32:23;93373.44;;;4.80;80.53
75051;BME280;63628;47.656;11.310;2024-02-23T10:34:52;93370.34;;;5.51;77.28
75051;BME280;63628;47.656;11.310;2024-02-23T10:37:20;93367.94;;;5.50;72.91
75051;BME280;63628;47.656;11.310;2024-02-23T10:39:49;93364.19;;;5.17;74.63
75051;BME280;63628;47.656;11.310;2024-02-23T10:42:20;93363.84;;;5.87;73.67
75051;BME280;63628;47.656;11.310;2024-02-23T10:44:51;93360.56;;;6.47;77.92
75051;BME280;63628;47.656;11.310;2024-02-23T10:47:19;93366.97;;;6.18;80.74
75051;BME280;63628;47.656;11.310;2024-02-23T10:49:48;93365.75;;;6.81;78.59
75051;BME280;63628;47.656;11.310;2024-02-23T10:52:15;93357.41;;;6.89;78.61
75051;BME280;63628;47.656;11.310;2024-02-23T10:54:46;93346.03;;;5.27;71.42
75051;BME280;63628;47.656;11.310;2024-02-23T10:57:13;93357.34;;;4.24;75.95
75051;BME280;63628;47.656;11.310;2024-02-23T10:59:45;93345.75;;;5.40;81.26
75051;BME280;63628;47.656;11.310;2024-02-23T11:02:13;93349.03;;;5.64;79.49
75051;BME280;63628;47.656;11.310;2024-02-23T11:04:47;93356.25;;;6.58;78.92
75051;BME280;63628;47.656;11.310;2024-02-23T11:07:19;93353.25;;;5.20;74.86
75051;BME280;63628;47.656;11.310;2024-02-23T11:09:49;93352.72;;;6.14;80.47
75051;BME280;63628;47.656;11.310;2024-02-23T11:12:22;93350.22;;;6.41;77.15
75051;BME280;63628;47.656;11.310;2024-02-23T11:14:51;93347.09;;;6.82;78.39
75051;BME280;63628;47.656;11.310;2024-02-23T11:17:22;93345.63;;;6.91;78.33
75051;BME280;63628;47.656;11.310;2024-02-23T11:19:50;93344.03;;;6.90;77.84
75051;BME280;63628;47.656;11.310;2024-02-23T11:22:23;93341.66;;;6.89;77.41
75051;BME280;63628;47.656;11.310;2024-02-23T11:25:00;93326.41;;;6.91;77.87
75051;BME280;63628;47.656;11.310;2024-02-23T11:27:30;93330.41;;;6.93;77.98
75051;BME280;63628;47.656;11.310;2024-02-23T11:30:02;93333.31;;;6.97;78.08
75051;BME280;63628;47.656;11.310;2024-02-23T11:32:37;93332.53;;;6.96;77.68
75051;BME280;63628;47.656;11.310;2024-02-23T11:35:11;93331.56;;;6.81;77.36
75051;BME280;63628;47.656;11.310;2024-02-23T11:37:47;93324.59;;;6.91;77.54
75051;BME280;63628;47.656;11.310;2024-02-23T11:40:14;93323.25;;;6.67;76.49
75051;BME280;63628;47.656;11.310;2024-02-23T11:42:41;93313.81;;;6.93;77.47
75051;BME280;63628;47.656;11.310;2024-02-23T11:45:11;93311.38;;;6.86;77.83
75051;BME280;63628;47.656;11.310;2024-02-23T11:47:38;93317.53;;;6.97;77.86
75051;BME280;63628;47.656;11.310;2024-02-23T11:50:08;93321.47;;;6.73;78.60
75051;BME280;63628;47.656;11.310;2024-02-23T11:52:36;93310.41;;;6.92;77.92
75051;BME280;63628;47.656;11.310;2024-02-23T11:55:04;93307.03;;;6.97;77.85
75051;BME280;63628;47.656;11.310;2024-02-23T11:57:31;93318.34;;;6.97;77.69
75051;BME280;63628;47.656;11.310;2024-02-23T12:00:12;93322.56;;;6.98;77.85
75051;BME280;63628;47.656;11.310;2024-02-23T12:02:39;93317.53;;;6.97;77.70
75051;BME280;63628;47.656;11.310;2024-02-23T12:05:06;93321.50;;;6.99;77.14
75051;BME280;63628;47.656;11.310;2024-02-23T12:07:33;93308.63;;;6.98;77.26
75051;BME280;63628;47.656;11.310;2024-02-23T12:10:03;93304.16;;;6.98;77.24
75051;BME280;63628;47.656;11.310;2024-02-23T12:12:30;93306.78;;;6.98;77.21
75051;BME280;63628;47.656;11.310;2024-02-23T12:14:58;93302.38;;;6.39;70.53
75051;BME280;63628;47.656;11.310;2024-02-23T12:17:25;93299.63;;;5.90;80.35
75051;BME280;63628;47.656;11.310;2024-02-23T12:19:58;93302.63;;;6.81;78.30
75051;BME280;63628;47.656;11.310;2024-02-23T12:22:25;93306.97;;;6.10;76.25
75051;BME280;63628;47.656;11.310;2024-02-23T12:24:52;93300.44;;;6.73;78.29
75051;BME280;63628;47.656;11.310;2024-02-23T12:27:20;93303.78;;;6.90;78.00
75051;BME280;63628;47.656;11.310;2024-02-23T12:29:51;93308.00;;;6.91;78.09
75051;BME280;63628;47.656;11.310;2024-02-23T12:32:20;93309.59;;;6.92;77.92
75051;BME280;63628;47.656;11.310;2024-02-23T12:34:47;93307.75;;;6.92;77.84
75051;BME280;63628;47.656;11.310;2024-02-23T12:37:14;93290.00;;;6.78;76.25
75051;BME280;63628;47.656;11.310;2024-02-23T12:39:41;93282.88;;;6.13;75.87
75051;BME280;63628;47.656;11.310;2024-02-23T12:42:08;93261.16;;;6.61;77.53
75051;BME280;63628;47.656;11.310;2024-02-23T12:44:36;93259.03;;;6.58;78.85
75051;BME280;63628;47.656;11.310;2024-02-23T12:47:03;93268.75;;;6.84;78.14
75051;BME280;63628;47.656;11.310;2024-02-23T12:49:30;93277.25;;;6.91;77.69
75051;BME280;63628;47.656;11.310;2024-02-23T12:51:57;93265.69;;;6.92;77.80
75051;BME280;63628;47.656;11.310;2024-02-23T12:54:23;93269.13;;;6.93;77.65
75051;BME280;63628;47.656;11.310;2024-02-23T12:56:50;93274.91;;;6.95;77.60
75051;BME280;63628;47.656;11.310;2024-02-23T12:59:17;93280.19;;;6.95;77.64
75051;BME280;63628;47.656;11.310;2024-02-23T13:01:46;93283.84;;;6.94;77.83